sensor_id;sensor_type;location;lat;lon;timestamp;temperature;humidity
23114;DHT22;11726;50.122;8.832;2024-03-02T00:00:50;5.70;99.90
23114;DHT22;11726;50.122;8.832;2024-03-02T00:03:18;5.50;99.90
23114;DHT22;11726;50.122;8.832;2024-03-02T00:05:49;5.40;99.90
23114;DHT22;11726;50.122;8.832;2024-03-02T00:08:24;5.40;99.90
23114;DHT22;11726;50.122;8.832;2024-03-02T00:11:00;5.40;99.90
23114;DHT22;11726;50.122;8.832;2024-03-02T00:13:27;5.40;99.90
23114;DHT22;11726;50.122;8.832;2024-03-02T00:15:55;5.50;99.90
23114;DHT22;11726;50.122;8.832;2024-03-02T00:18:30;5.50;99.90
23114;DHT22;11726;50.122;8.832;2024-03-02T00:20:57;5.60;99.90
23114;DHT22;11726;50.122;8.832;2024-03-02T00:23:27;5.60;99.90
23114;DHT22;11726;50.122;8.832;2024-03-02T00:25:55;5.50;99.90
23114;DHT22;11726;50.122;8.832;2024-03-02T00:28:24;5.50;99.90
23114;DHT22;11726;50.122;8.832;2024-03-02T00:33:35;5.40;99.90
23114;DHT22;11726;50.122;8.832;2024-03-02T00:36:03;5.40;99.90
23114;DHT22;11726;50.122;8.832;2024-03-02T00:38:31;5.30;99.90
23114;DHT22;11726;50.122;8.832;2024-03-02T00:41:05;5.30;99.90
23114;DHT22;11726;50.122;8.832;2024-03-02T00:46:18;5.30;99.90
23114;DHT22;11726;50.122;8.832;2024-03-02T00:48:59;5.30;99.90
23114;DHT22;11726;50.122;8.832;2024-03-02T00:51:29;5.20;99.90
23114;DHT22;11726;50.122;8.832;2024-03-02T00:54:00;5.20;99.90
23114;DHT22;11726;50.122;8.832;2024-03-02T00:56:27;5.20;99.90
23114;DHT22;11726;50.122;8.832;2024-03-02T00:58:54;5.20;99.90
23114;DHT22;11726;50.122;8.832;2024-03-02T01:01:20;5.20;99.90
23114;DHT22;11726;50.122;8.832;2024-03-02T01:03:48;5.20;99.90
23114;DHT22;11726;50.122;8.832;2024-03-02T01:06:16;5.10;99.90
23114;DHT22;11726;50.122;8.832;2024-03-02T01:08:43;5.20;99.90
23114;DHT22;11726;50.122;8.832;2024-03-02T01:11:10;5.20;99.90
23114;DHT22;11726;50.122;8.832;2024-03-02T01:13:37;5.10;99.90
23114;DHT22;11726;50.122;8.832;2024-03-02T01:16:04;5.00;99.90
23114;DHT22;11726;50.122;8.832;2024-03-02T01:18:31;5.00;99.90
23114;DHT22;11726;50.122;8.832;2024-03-02T01:20:58;5.00;99.90
23114;DHT22;11726;50.122;8.832;2024-03-02T01:23:25;5.10;99.90
23114;DHT22;11726;50.122;8.832;2024-03-02T01:25:52;5.20;99.90
23114;DHT22;11726;50.122;8.832;2024-03-02T01:28:19;5.20;99.90
23114;DHT22;11726;50.122;8.832;2024-03-02T01:30:47;5.20;99.90
23114;DHT22;11726;50.122;8.832;2024-03-02T01:33:15;5.20;99.90
23114;DHT22;11726;50.122;8.832;2024-03-02T01:35:42;5.20;99.90
23114;DHT22;11726;50.122;8.832;2024-03-02T01:38:08;5.00;99.90
23114;DHT22;11726;50.122;8.832;2024-03-02T01:40:36;5.10;99.90
23114;DHT22;11726;50.122;8.832;2024-03-02T01:43:04;5.10;99.90
23114;DHT22;11726;50.122;8.832;2024-03-02T01:45:32;5.00;99.90
23114;DHT22;11726;50.122;8.832;2024-03-02T01:47:59;5.00;99.90
23114;DHT22;11726;50.122;8.832;2024-03-02T01:50:31;4.90;99.90
23114;DHT22;11726;50.122;8.832;2024-03-02T01:52:58;4.90;99.90
23114;DHT22;11726;50.122;8.832;2024-03-02T01:55:26;4.90;99.90
23114;DHT22;11726;50.122;8.832;2024-03-02T01:57:53;4.90;99.90
23114;DHT22;11726;50.122;8.832;2024-03-02T02:00:21;4.90;99.90
23114;DHT22;11726;50.122;8.832;2024-03-02T02:02:48;4.80;99.90
23114;DHT22;11726;50.122;8.832;2024-03-02T02:05:15;4.80;99.90
23114;DHT22;11726;50.122;8.832;2024-03-02T02:07:43;4.80;99.90
23114;DHT22;11726;50.122;8.832;2024-03-02T02:10:12;4.80;99.90
23114;DHT22;11726;50.122;8.832;2024-03-02T02:12:39;4.80;99.90
23114;DHT22;11726;50.122;8.832;2024-03-02T02:15:29;4.80;99.90
23114;DHT22;11726;50.122;8.832;2024-03-02T02:17:58;4.60;99.90
23114;DHT22;11726;50.122;8.832;2024-03-02T02:20:26;4.70;99.90
23114;DHT22;11726;50.122;8.832;2024-03-02T02:22:59;4.60;99.90
23114;DHT22;11726;50.122;8.832;2024-03-02T02:25:27;4.70;99.90
23114;DHT22;11726;50.122;8.832;2024-03-02T02:27:54;4.50;99.90
23114;DHT22;11726;50.122;8.832;2024-03-02T02:30:26;4.40;99.90
23114;DHT22;11726;50.122;8.832;2024-03-02T02:32:54;4.50;99.90
23114;DHT22;11726;50.122;8.832;2024-03-02T02:35:21;4.60;99.90
23114;DHT22;11726;50.122;8.832;2024-03-02T02:37:48;4.50;99.90
23114;DHT22;11726;50.122;8.832;2024-03-02T02:40:16;4.50;99.90
23114;DHT22;11726;50.122;8.832;2024-03-02T02:42:42;4.40;99.90
23114;DHT22;11726;50.122;8.832;2024-03-02T02:45:09;4.30;99.90
23114;DHT22;11726;50.122;8.832;2024-03-02T02:47:37;4.30;99.90
23114;DHT22;11726;50.122;8.832;2024-03-02T02:50:06;4.40;99.90
23114;DHT22;11726;50.122;8.832;2024-03-02T02:52:34;4.40;99.90
23114;DHT22;11726;50.122;8.832;2024-03-02T02:55:07;4.40;99.90
23114;DHT22;11726;50.122;8.832;2024-03-02T02:57:35;4.30;99.90
23114;DHT22;11726;50.122;8.832;2024-03-02T03:00:05;4.40;99.90
23114;DHT22;11726;50.122;8.832;2024-03-02T03:02:40;4.30;99.90
23114;DHT22;11726;50.122;8.832;2024-03-02T03:05:09;4.30;99.90
23114;DHT22;11726;50.122;8.832;2024-03-02T03:07:37;4.30;99.90
23114;DHT22;11726;50.122;8.832;2024-03-02T03:10:04;4.10;99.90
23114;DHT22;11726;50.122;8.832;2024-03-02T03:12:32;4.20;99.90
23114;DHT22;11726;50.122;8.832;2024-03-02T03:14:59;4.10;99.90
23114;DHT22;11726;50.122;8.832;2024-03-02T03:17:26;4.20;99.90
23114;DHT22;11726;50.122;8.832;2024-03-02T03:19:53;4.10;99.90
23114;DHT22;11726;50.122;8.832;2024-03-02T03:22:21;4.10;99.90
23114;DHT22;11726;50.122;8.832;2024-03-02T03:24:47;4.00;99.90
23114;DHT22;11726;50.122;8.832;2024-03-02T03:27:14;4.00;99.90
23114;DHT22;11726;50.122;8.832;2024-03-02T03:29:41;3.90;99.90
23114;DHT22;11726;50.122;8.832;2024-03-02T03:32:08;3.90;99.90
23114;DHT22;11726;50.122;8.832;2024-03-02T03:34:35;3.90;99.90
23114;DHT22;11726;50.122;8.832;2024-03-02T03:37:02;3.60;99.90
23114;DHT22;11726;50.122;8.832;2024-03-02T03:39:29;3.60;99.90
23114;DHT22;11726;50.122;8.832;2024-03-02T03:41:56;3.70;99.90
23114;DHT22;11726;50.122;8.832;2024-03-02T03:44:22;3.70;99.90
23114;DHT22;11726;50.122;8.832;2024-03-02T03:46:49;3.70;99.90
23114;DHT22;11726;50.122;8.832;2024-03-02T03:49:16;3.70;99.90
23114;DHT22;11726;50.122;8.832;2024-03-02T03:51:42;3.90;99.90
23114;DHT22;11726;50.122;8.832;2024-03-02T03:54:09;3.90;99.90
23114;DHT22;11726;50.122;8.832;2024-03-02T03:56:37;3.80;99.90
23114;DHT22;11726;50.122;8.832;2024-03-02T03:59:04;3.80;99.90
23114;DHT22;11726;50.122;8.832;2024-03-02T04:01:31;3.80;99.90
23114;DHT22;11726;50.122;8.832;2024-03-02T04:03:58;3.70;99.90
23114;DHT22;11726;50.122;8.832;2024-03-02T04:06:25;3.60;99.90
23114;DHT22;11726;50.122;8.832;2024-03-02T04:08:52;3.60;99.90
23114;DHT22;11726;50.122;8.832;2024-03-02T04:11:18;3.60;99.90
23114;DHT22;11726;50.122;8.832;2024-03-02T04:13:45;3.60;99.90
23114;DHT22;11726;50.122;8.832;2024-03-02T04:16:12;3.50;99.90
23114;DHT22;11726;50.122;8.832;2024-03-02T04:18:38;3.60;99.90
23114;DHT22;11726;50.122;8.832;2024-03-02T04:21:06;3.70;99.90
23114;DHT22;11726;50.122;8.832;2024-03-02T04:23:33;3.60;99.90
23114;DHT22;11726;50.122;8.832;2024-03-02T04:25:59;3.70;99.90
23114;DHT22;11726;50.122;8.832;2024-03-02T04:28:26;3.80;99.90
23114;DHT22;11726;50.122;8.832;2024-03-02T04:30:53;3.80;99.90
23114;DHT22;11726;50.122;8.832;2024-03-02T04:33:19;3.80;99.90
23114;DHT22;11726;50.122;8.832;2024-03-02T04:35:46;3.80;99.90
23114;DHT22;11726;50.122;8.832;2024-03-02T04:38:13;3.80;99.90
23114;DHT22;11726;50.122;8.832;2024-03-02T04:40:40;3.70;99.90
23114;DHT22;11726;50.122;8.832;2024-03-02T04:43:06;3.50;99.90
23114;DHT22;11726;50.122;8.832;2024-03-02T04:45:37;3.50;99.90
23114;DHT22;11726;50.122;8.832;2024-03-02T04:48:05;3.50;99.90
23114;DHT22;11726;50.122;8.832;2024-03-02T04:50:32;3.50;99.90
23114;DHT22;11726;50.122;8.832;2024-03-02T04:52:59;3.50;99.90
23114;DHT22;11726;50.122;8.832;2024-03-02T04:55:25;3.50;99.90
23114;DHT22;11726;50.122;8.832;2024-03-02T04:57:55;3.60;99.90
23114;DHT22;11726;50.122;8.832;2024-03-02T05:00:22;3.50;99.90
23114;DHT22;11726;50.122;8.832;2024-03-02T05:02:49;3.40;99.90
23114;DHT22;11726;50.122;8.832;2024-03-02T05:05:18;3.50;99.90
23114;DHT22;11726;50.122;8.832;2024-03-02T05:07:44;3.40;99.90
23114;DHT22;11726;50.122;8.832;2024-03-02T05:10:11;3.40;99.90
23114;DHT22;11726;50.122;8.832;2024-03-02T05:12:38;3.40;99.90
23114;DHT22;11726;50.122;8.832;2024-03-02T05:15:13;3.50;99.90
23114;DHT22;11726;50.122;8.832;2024-03-02T05:17:41;3.60;99.90
23114;DHT22;11726;50.122;8.832;2024-03-02T05:20:10;3.60;99.90
23114;DHT22;11726;50.122;8.832;2024-03-02T05:22:38;3.60;99.90
23114;DHT22;11726;50.122;8.832;2024-03-02T05:25:05;3.60;99.90
23114;DHT22;11726;50.122;8.832;2024-03-02T05:27:32;3.60;99.90
23114;DHT22;11726;50.122;8.832;2024-03-02T05:29:59;3.60;99.90
23114;DHT22;11726;50.122;8.832;2024-03-02T05:32:26;3.50;99.90
23114;DHT22;11726;50.122;8.832;2024-03-02T05:34:53;3.50;99.90
23114;DHT22;11726;50.122;8.832;2024-03-02T05:37:20;3.60;99.90
23114;DHT22;11726;50.122;8.832;2024-03-02T05:39:46;3.60;99.90
23114;DHT22;11726;50.122;8.832;2024-03-02T05:42:13;3.40;99.90
23114;DHT22;11726;50.122;8.832;2024-03-02T05:44:40;3.30;99.90
23114;DHT22;11726;50.122;8.832;2024-03-02T05:47:07;3.20;99.90
23114;DHT22;11726;50.122;8.832;2024-03-02T05:49:35;3.10;99.90
23114;DHT22;11726;50.122;8.832;2024-03-02T05:52:02;3.10;99.90
23114;DHT22;11726;50.122;8.832;2024-03-02T05:54:29;3.20;99.90
23114;DHT22;11726;50.122;8.832;2024-03-02T05:56:56;3.20;99.90
23114;DHT22;11726;50.122;8.832;2024-03-02T05:59:23;3.20;99.90
23114;DHT22;11726;50.122;8.832;2024-03-02T06:01:49;3.20;99.90
23114;DHT22;11726;50.122;8.832;2024-03-02T06:04:19;3.20;99.90
23114;DHT22;11726;50.122;8.832;2024-03-02T06:06:45;3.20;99.90
23114;DHT22;11726;50.122;8.832;2024-03-02T06:09:12;3.10;99.90
23114;DHT22;11726;50.122;8.832;2024-03-02T06:11:40;3.10;99.90
23114;DHT22;11726;50.122;8.832;2024-03-02T06:14:08;3.20;99.90
23114;DHT22;11726;50.122;8.832;2024-03-02T06:16:35;3.20;99.90
23114;DHT22;11726;50.122;8.832;2024-03-02T06:19:02;3.10;99.90
23114;DHT22;11726;50.122;8.832;2024-03-02T06:21:29;3.10;99.90
23114;DHT22;11726;50.122;8.832;2024-03-02T06:23:56;3.10;99.90
23114;DHT22;11726;50.122;8.832;2024-03-02T06:26:23;2.80;99.90
23114;DHT22;11726;50.122;8.832;2024-03-02T06:28:52;2.80;99.90
23114;DHT22;11726;50.122;8.832;2024-03-02T06:31:19;2.90;99.90
23114;DHT22;11726;50.122;8.832;2024-03-02T06:33:45;2.90;99.90
23114;DHT22;11726;50.122;8.832;2024-03-02T06:36:12;3.00;99.90
23114;DHT22;11726;50.122;8.832;2024-03-02T06:38:39;3.10;99.90
23114;DHT22;11726;50.122;8.832;2024-03-02T06:41:09;3.10;99.90
23114;DHT22;11726;50.122;8.832;2024-03-02T06:43:36;3.10;99.90
23114;DHT22;11726;50.122;8.832;2024-03-02T06:46:02;3.00;99.90
23114;DHT22;11726;50.122;8.832;2024-03-02T06:48:29;3.00;99.90
23114;DHT22;11726;50.122;8.832;2024-03-02T06:50:57;3.00;99.90
23114;DHT22;11726;50.122;8.832;2024-03-02T06:53:25;3.00;99.90
23114;DHT22;11726;50.122;8.832;2024-03-02T06:55:52;3.10;99.90
23114;DHT22;11726;50.122;8.832;2024-03-02T06:58:18;3.20;99.90
23114;DHT22;11726;50.122;8.832;2024-03-02T07:00:45;3.20;99.90
23114;DHT22;11726;50.122;8.832;2024-03-02T07:03:12;3.30;99.90
23114;DHT22;11726;50.122;8.832;2024-03-02T07:05:39;3.50;99.90
23114;DHT22;11726;50.122;8.832;2024-03-02T07:08:06;3.50;99.90
23114;DHT22;11726;50.122;8.832;2024-03-02T07:10:33;3.60;99.90
23114;DHT22;11726;50.122;8.832;2024-03-02T07:12:59;3.50;99.90
23114;DHT22;11726;50.122;8.832;2024-03-02T07:15:26;3.40;99.90
23114;DHT22;11726;50.122;8.832;2024-03-02T07:17:53;3.40;99.90
23114;DHT22;11726;50.122;8.832;2024-03-02T07:20:20;3.50;99.90
23114;DHT22;11726;50.122;8.832;2024-03-02T07:22:47;3.60;99.90
23114;DHT22;11726;50.122;8.832;2024-03-02T07:25:13;3.70;99.90
23114;DHT22;11726;50.122;8.832;2024-03-02T07:27:43;3.70;99.90
23114;DHT22;11726;50.122;8.832;2024-03-02T07:30:14;3.80;99.90
23114;DHT22;11726;50.122;8.832;2024-03-02T07:32:42;3.90;99.90
23114;DHT22;11726;50.122;8.832;2024-03-02T07:35:13;3.90;99.90
23114;DHT22;11726;50.122;8.832;2024-03-02T07:37:41;3.80;99.90
23114;DHT22;11726;50.122;8.832;2024-03-02T07:40:09;3.80;99.90
23114;DHT22;11726;50.122;8.832;2024-03-02T07:42:40;3.90;99.90
23114;DHT22;11726;50.122;8.832;2024-03-02T07:45:07;3.90;99.90
23114;DHT22;11726;50.122;8.832;2024-03-02T07:47:34;4.00;99.90
23114;DHT22;11726;50.122;8.832;2024-03-02T07:50:01;4.10;99.90
23114;DHT22;11726;50.122;8.832;2024-03-02T07:52:29;4.20;99.90
23114;DHT22;11726;50.122;8.832;2024-03-02T07:54:55;4.30;99.90
23114;DHT22;11726;50.122;8.832;2024-03-02T07:57:22;4.30;99.90
23114;DHT22;11726;50.122;8.832;2024-03-02T07:59:49;4.40;99.90
23114;DHT22;11726;50.122;8.832;2024-03-02T08:02:16;4.40;99.90
23114;DHT22;11726;50.122;8.832;2024-03-02T08:04:42;4.40;99.90
23114;DHT22;11726;50.122;8.832;2024-03-02T08:07:09;4.50;99.90
23114;DHT22;11726;50.122;8.832;2024-03-02T08:09:36;4.60;99.90
23114;DHT22;11726;50.122;8.832;2024-03-02T08:12:03;4.90;99.90
23114;DHT22;11726;50.122;8.832;2024-03-02T08:14:29;4.90;99.90
23114;DHT22;11726;50.122;8.832;2024-03-02T08:16:56;5.00;99.90
23114;DHT22;11726;50.122;8.832;2024-03-02T08:19:23;5.20;99.90
23114;DHT22;11726;50.122;8.832;2024-03-02T08:21:49;5.30;99.90
23114;DHT22;11726;50.122;8.832;2024-03-02T08:24:16;5.40;99.90
23114;DHT22;11726;50.122;8.832;2024-03-02T08:26:43;5.60;99.90
23114;DHT22;11726;50.122;8.832;2024-03-02T08:29:10;5.70;99.90
23114;DHT22;11726;50.122;8.832;2024-03-02T08:31:37;5.90;99.90
23114;DHT22;11726;50.122;8.832;2024-03-02T08:34:07;6.10;99.90
23114;DHT22;11726;50.122;8.832;2024-03-02T08:36:34;6.30;99.90
23114;DHT22;11726;50.122;8.832;2024-03-02T08:39:01;6.50;99.90
23114;DHT22;11726;50.122;8.832;2024-03-02T08:41:28;6.60;99.90
23114;DHT22;11726;50.122;8.832;2024-03-02T08:43:55;6.70;99.90
23114;DHT22;11726;50.122;8.832;2024-03-02T08:46:22;6.90;99.90
23114;DHT22;11726;50.122;8.832;2024-03-02T08:48:48;7.30;99.90
23114;DHT22;11726;50.122;8.832;2024-03-02T08:51:15;7.50;99.90
23114;DHT22;11726;50.122;8.832;2024-03-02T08:53:42;7.80;99.90
23114;DHT22;11726;50.122;8.832;2024-03-02T08:56:10;7.90;99.90
23114;DHT22;11726;50.122;8.832;2024-03-02T08:58:37;7.90;99.90
23114;DHT22;11726;50.122;8.832;2024-03-02T09:01:03;7.90;99.90
23114;DHT22;11726;50.122;8.832;2024-03-02T09:03:30;7.90;99.90
23114;DHT22;11726;50.122;8.832;2024-03-02T09:05:59;8.00;99.90
23114;DHT22;11726;50.122;8.832;2024-03-02T09:08:26;8.20;99.90
23114;DHT22;11726;50.122;8.832;2024-03-02T09:10:54;8.20;99.90
23114;DHT22;11726;50.122;8.832;2024-03-02T09:13:21;8.20;99.90
23114;DHT22;11726;50.122;8.832;2024-03-02T09:15:48;8.10;99.90
23114;DHT22;11726;50.122;8.832;2024-03-02T09:18:15;8.20;99.90
23114;DHT22;11726;50.122;8.832;2024-03-02T09:20:42;8.30;99.90
23114;DHT22;11726;50.122;8.832;2024-03-02T09:23:08;8.50;99.90
23114;DHT22;11726;50.122;8.832;2024-03-02T09:25:35;8.60;99.90
23114;DHT22;11726;50.122;8.832;2024-03-02T09:28:03;8.70;99.90
23114;DHT22;11726;50.122;8.832;2024-03-02T09:30:30;8.90;99.90
23114;DHT22;11726;50.122;8.832;2024-03-02T09:32:57;8.90;99.90
23114;DHT22;11726;50.122;8.832;2024-03-02T09:35:43;8.90;99.90
23114;DHT22;11726;50.122;8.832;2024-03-02T09:38:10;8.90;99.90
23114;DHT22;11726;50.122;8.832;2024-03-02T09:40:36;8.90;99.90
23114;DHT22;11726;50.122;8.832;2024-03-02T09:43:03;8.90;99.90
23114;DHT22;11726;50.122;8.832;2024-03-02T09:45:30;9.00;99.90
23114;DHT22;11726;50.122;8.832;2024-03-02T09:47:57;9.00;99.90
23114;DHT22;11726;50.122;8.832;2024-03-02T09:50:24;9.20;99.90
23114;DHT22;11726;50.122;8.832;2024-03-02T09:52:52;9.30;99.90
23114;DHT22;11726;50.122;8.832;2024-03-02T09:55:19;9.40;99.90
23114;DHT22;11726;50.122;8.832;2024-03-02T09:57:46;9.50;99.90
23114;DHT22;11726;50.122;8.832;2024-03-02T10:00:15;9.60;99.90
23114;DHT22;11726;50.122;8.832;2024-03-02T10:02:42;9.80;99.90
23114;DHT22;11726;50.122;8.832;2024-03-02T10:05:09;9.90;99.90
23114;DHT22;11726;50.122;8.832;2024-03-02T10:07:36;9.90;99.90
23114;DHT22;11726;50.122;8.832;2024-03-02T10:10:13;9.90;99.90
23114;DHT22;11726;50.122;8.832;2024-03-02T10:12:41;10.00;99.90
23114;DHT22;11726;50.122;8.832;2024-03-02T10:15:08;10.10;99.90
23114;DHT22;11726;50.122;8.832;2024-03-02T10:17:36;10.10;99.90
23114;DHT22;11726;50.122;8.832;2024-03-02T10:20:22;10.10;99.90
23114;DHT22;11726;50.122;8.832;2024-03-02T10:22:50;10.10;99.90
23114;DHT22;11726;50.122;8.832;2024-03-02T10:25:32;10.10;99.90
23114;DHT22;11726;50.122;8.832;2024-03-02T10:28:02;10.30;99.90
23114;DHT22;11726;50.122;8.832;2024-03-02T10:30:35;10.40;99.90
23114;DHT22;11726;50.122;8.832;2024-03-02T10:33:02;10.50;99.90
23114;DHT22;11726;50.122;8.832;2024-03-02T10:35:29;10.40;99.90
23114;DHT22;11726;50.122;8.832;2024-03-02T10:37:59;10.50;99.90
23114;DHT22;11726;50.122;8.832;2024-03-02T10:40:27;10.60;99.90
23114;DHT22;11726;50.122;8.832;2024-03-02T10:42:54;10.80;99.90
23114;DHT22;11726;50.122;8.832;2024-03-02T10:45:21;10.90;99.90
23114;DHT22;11726;50.122;8.832;2024-03-02T10:47:50;11.10;99.90
23114;DHT22;11726;50.122;8.832;2024-03-02T10:50:17;11.20;99.90
23114;DHT22;11726;50.122;8.832;2024-03-02T10:52:44;11.20;99.90
23114;DHT22;11726;50.122;8.832;2024-03-02T10:55:10;11.20;99.90
23114;DHT22;11726;50.122;8.832;2024-03-02T10:57:51;11.20;99.90
23114;DHT22;11726;50.122;8.832;2024-03-02T11:00:20;11.40;99.90
23114;DHT22;11726;50.122;8.832;2024-03-02T11:02:58;11.50;99.90
23114;DHT22;11726;50.122;8.832;2024-03-02T11:05:29;11.50;99.90
23114;DHT22;11726;50.122;8.832;2024-03-02T11:08:02;11.60;99.90
23114;DHT22;11726;50.122;8.832;2024-03-02T11:10:39;11.60;99.90
23114;DHT22;11726;50.122;8.832;2024-03-02T11:13:10;11.60;99.90
23114;DHT22;11726;50.122;8.832;2024-03-02T11:15:40;11.70;99.90
23114;DHT22;11726;50.122;8.832;2024-03-02T11:18:10;12.00;99.90
23114;DHT22;11726;50.122;8.832;2024-03-02T11:20:39;12.20;99.90
23114;DHT22;11726;50.122;8.832;2024-03-02T11:23:07;12.30;99.90
23114;DHT22;11726;50.122;8.832;2024-03-02T11:25:35;12.40;99.90
23114;DHT22;11726;50.122;8.832;2024-03-02T11:28:03;12.50;99.90
23114;DHT22;11726;50.122;8.832;2024-03-02T11:33:07;12.90;99.90
23114;DHT22;11726;50.122;8.832;2024-03-02T11:35:45;13.20;99.90
23114;DHT22;11726;50.122;8.832;2024-03-02T11:38:15;13.40;99.90
23114;DHT22;11726;50.122;8.832;2024-03-02T11:40:42;13.40;99.90
23114;DHT22;11726;50.122;8.832;2024-03-02T11:43:09;13.40;99.90
23114;DHT22;11726;50.122;8.832;2024-03-02T11:45:43;13.70;99.90
23114;DHT22;11726;50.122;8.832;2024-03-02T11:48:15;13.80;99.90
23114;DHT22;11726;50.122;8.832;2024-03-02T11:50:47;14.10;99.90
23114;DHT22;11726;50.122;8.832;2024-03-02T11:53:14;14.20;99.90
23114;DHT22;11726;50.122;8.832;2024-03-02T11:55:41;14.30;99.90
23114;DHT22;11726;50.122;8.832;2024-03-02T11:58:13;14.40;99.90
23114;DHT22;11726;50.122;8.832;2024-03-02T12:00:39;14.40;99.90
23114;DHT22;11726;50.122;8.832;2024-03-02T12:03:08;14.30;99.90
23114;DHT22;11726;50.122;8.832;2024-03-02T12:05:36;14.40;99.90
23114;DHT22;11726;50.122;8.832;2024-03-02T12:08:05;14.30;99.90
23114;DHT22;11726;50.122;8.832;2024-03-02T12:10:32;14.30;99.90
23114;DHT22;11726;50.122;8.832;2024-03-02T12:13:01;14.40;99.90
23114;DHT22;11726;50.122;8.832;2024-03-02T12:15:30;14.50;99.90
23114;DHT22;11726;50.122;8.832;2024-03-02T12:17:59;14.40;99.90
23114;DHT22;11726;50.122;8.832;2024-03-02T12:20:28;14.50;99.90
23114;DHT22;11726;50.122;8.832;2024-03-02T12:22:58;14.50;99.90
23114;DHT22;11726;50.122;8.832;2024-03-02T12:25:26;14.50;99.90
23114;DHT22;11726;50.122;8.832;2024-03-02T12:27:57;14.70;99.90
23114;DHT22;11726;50.122;8.832;2024-03-02T12:30:27;14.70;99.90
23114;DHT22;11726;50.122;8.832;2024-03-02T12:32:55;14.70;99.90
23114;DHT22;11726;50.122;8.832;2024-03-02T12:35:22;14.90;99.90
23114;DHT22;11726;50.122;8.832;2024-03-02T12:37:52;14.90;99.90
23114;DHT22;11726;50.122;8.832;2024-03-02T12:40:19;15.00;99.90
23114;DHT22;11726;50.122;8.832;2024-03-02T12:42:47;15.00;99.90
23114;DHT22;11726;50.122;8.832;2024-03-02T12:45:13;15.10;99.90
23114;DHT22;11726;50.122;8.832;2024-03-02T12:47:41;15.30;99.90
23114;DHT22;11726;50.122;8.832;2024-03-02T12:50:09;15.30;99.90
23114;DHT22;11726;50.122;8.832;2024-03-02T12:52:36;15.40;99.90
23114;DHT22;11726;50.122;8.832;2024-03-02T12:55:07;15.30;99.90
23114;DHT22;11726;50.122;8.832;2024-03-02T12:57:34;15.30;99.90
23114;DHT22;11726;50.122;8.832;2024-03-02T13:00:05;15.60;99.90
23114;DHT22;11726;50.122;8.832;2024-03-02T13:02:42;15.60;99.80
23114;DHT22;11726;50.122;8.832;2024-03-02T13:05:09;15.70;99.90
23114;DHT22;11726;50.122;8.832;2024-03-02T13:07:40;16.10;99.90
23114;DHT22;11726;50.122;8.832;2024-03-02T13:10:12;16.90;98.50
23114;DHT22;11726;50.122;8.832;2024-03-02T13:12:39;16.70;97.90
23114;DHT22;11726;50.122;8.832;2024-03-02T13:15:06;16.60;97.70
23114;DHT22;11726;50.122;8.832;2024-03-02T13:17:35;16.60;97.80
23114;DHT22;11726;50.122;8.832;2024-03-02T13:20:05;16.70;96.60
23114;DHT22;11726;50.122;8.832;2024-03-02T13:22:37;16.70;96.20
23114;DHT22;11726;50.122;8.832;2024-03-02T13:25:04;16.90;97.00
23114;DHT22;11726;50.122;8.832;2024-03-02T13:27:32;17.00;96.30
23114;DHT22;11726;50.122;8.832;2024-03-02T13:29:59;17.10;96.20
23114;DHT22;11726;50.122;8.832;2024-03-02T13:32:26;17.10;96.40
23114;DHT22;11726;50.122;8.832;2024-03-02T13:34:53;17.00;94.30
23114;DHT22;11726;50.122;8.832;2024-03-02T13:37:20;17.20;95.80
23114;DHT22;11726;50.122;8.832;2024-03-02T13:39:47;17.30;95.00
23114;DHT22;11726;50.122;8.832;2024-03-02T13:42:14;17.40;94.90
23114;DHT22;11726;50.122;8.832;2024-03-02T13:44:45;17.70;94.40
23114;DHT22;11726;50.122;8.832;2024-03-02T13:47:13;17.90;94.20
23114;DHT22;11726;50.122;8.832;2024-03-02T13:49:40;18.20;93.20
23114;DHT22;11726;50.122;8.832;2024-03-02T13:52:10;18.40;93.20
23114;DHT22;11726;50.122;8.832;2024-03-02T13:54:41;18.60;92.30
23114;DHT22;11726;50.122;8.832;2024-03-02T13:57:09;19.40;90.60
23114;DHT22;11726;50.122;8.832;2024-03-02T13:59:36;19.50;90.10
23114;DHT22;11726;50.122;8.832;2024-03-02T14:02:04;18.40;91.10
23114;DHT22;11726;50.122;8.832;2024-03-02T14:04:33;18.10;91.80
23114;DHT22;11726;50.122;8.832;2024-03-02T14:07:00;18.30;90.50
23114;DHT22;11726;50.122;8.832;2024-03-02T14:09:28;17.90;91.10
23114;DHT22;11726;50.122;8.832;2024-03-02T14:11:55;18.00;91.00
23114;DHT22;11726;50.122;8.832;2024-03-02T14:14:22;18.40;90.60
23114;DHT22;11726;50.122;8.832;2024-03-02T14:16:49;18.80;90.50
23114;DHT22;11726;50.122;8.832;2024-03-02T14:19:16;18.80;90.30
23114;DHT22;11726;50.122;8.832;2024-03-02T14:21:43;18.60;89.10
23114;DHT22;11726;50.122;8.832;2024-03-02T14:24:10;17.90;90.10
23114;DHT22;11726;50.122;8.832;2024-03-02T14:26:37;17.60;91.10
23114;DHT22;11726;50.122;8.832;2024-03-02T14:29:04;17.30;91.50
23114;DHT22;11726;50.122;8.832;2024-03-02T14:31:31;16.90;92.10
23114;DHT22;11726;50.122;8.832;2024-03-02T14:33:59;17.30;91.90
23114;DHT22;11726;50.122;8.832;2024-03-02T14:36:26;17.40;92.20
23114;DHT22;11726;50.122;8.832;2024-03-02T14:38:54;17.40;91.40
23114;DHT22;11726;50.122;8.832;2024-03-02T14:41:21;17.70;91.50
23114;DHT22;11726;50.122;8.832;2024-03-02T14:43:50;18.20;91.10
23114;DHT22;11726;50.122;8.832;2024-03-02T14:46:17;18.60;91.30
23114;DHT22;11726;50.122;8.832;2024-03-02T14:48:45;18.60;89.80
23114;DHT22;11726;50.122;8.832;2024-03-02T14:51:13;18.80;90.10
23114;DHT22;11726;50.122;8.832;2024-03-02T14:53:40;18.80;89.30
23114;DHT22;11726;50.122;8.832;2024-03-02T14:56:07;18.90;90.30
23114;DHT22;11726;50.122;8.832;2024-03-02T14:58:33;19.00;89.30
23114;DHT22;11726;50.122;8.832;2024-03-02T15:01:02;18.90;88.10
23114;DHT22;11726;50.122;8.832;2024-03-02T15:03:29;18.80;86.70
23114;DHT22;11726;50.122;8.832;2024-03-02T15:05:58;18.90;88.00
23114;DHT22;11726;50.122;8.832;2024-03-02T15:08:24;18.80;87.30
23114;DHT22;11726;50.122;8.832;2024-03-02T15:10:52;18.60;86.80
23114;DHT22;11726;50.122;8.832;2024-03-02T15:13:19;18.30;87.90
23114;DHT22;11726;50.122;8.832;2024-03-02T15:15:46;17.80;87.70
23114;DHT22;11726;50.122;8.832;2024-03-02T15:18:12;17.50;89.10
23114;DHT22;11726;50.122;8.832;2024-03-02T15:20:39;17.30;90.10
23114;DHT22;11726;50.122;8.832;2024-03-02T15:23:07;17.30;90.10
23114;DHT22;11726;50.122;8.832;2024-03-02T15:25:34;17.30;90.30
23114;DHT22;11726;50.122;8.832;2024-03-02T15:28:00;17.10;90.10
23114;DHT22;11726;50.122;8.832;2024-03-02T15:30:27;16.90;90.40
23114;DHT22;11726;50.122;8.832;2024-03-02T15:32:54;16.80;90.70
23114;DHT22;11726;50.122;8.832;2024-03-02T15:35:20;16.80;90.90
23114;DHT22;11726;50.122;8.832;2024-03-02T15:37:47;16.80;90.70
23114;DHT22;11726;50.122;8.832;2024-03-02T15:40:14;16.80;90.50
23114;DHT22;11726;50.122;8.832;2024-03-02T15:42:40;17.10;90.30
23114;DHT22;11726;50.122;8.832;2024-03-02T15:45:07;17.30;90.00
23114;DHT22;11726;50.122;8.832;2024-03-02T15:47:34;17.70;89.30
23114;DHT22;11726;50.122;8.832;2024-03-02T15:50:03;17.80;87.70
23114;DHT22;11726;50.122;8.832;2024-03-02T15:52:30;17.80;88.00